sensor_id;sensor_type;location;lat;lon;timestamp;pressure;altitude;pressure_sealevel;temperature;humidity
35758;BME280;21879;50.110;18.900;2023-01-31T00:03:11;97961.76;;;1.58;74.33
35758;BME280;21879;50.110;18.900;2023-01-31T00:13:40;97972.05;;;1.48;74.79
35758;BME280;21879;50.110;18.900;2023-01-31T00:24:10;97982.33;;;1.47;75.29
35758;BME280;21879;50.110;18.900;2023-01-31T00:34:38;97991.09;;;1.49;75.18
35758;BME280;21879;50.110;18.900;2023-01-31T00:45:07;97989.58;;;1.62;75.56
35758;BME280;21879;50.110;18.900;2023-01-31T00:55:36;97992.36;;;1.78;75.64
35758;BME280;21879;50.110;18.900;2023-01-31T01:06:04;98005.05;;;1.90;75.37
35758;BME280;21879;50.110;18.900;2023-01-31T01:16:32;98007.55;;;1.98;75.40
35758;BME280;21879;50.110;18.900;2023-01-31T01:27:01;98010.34;;;2.01;75.21
35758;BME280;21879;50.110;18.900;2023-01-31T01:37:31;98025.60;;;2.01;74.91
35758;BME280;21879;50.110;18.900;2023-01-31T01:48:02;98030.53;;;1.98;74.93
35758;BME280;21879;50.110;18.900;2023-01-31T01:58:37;98047.52;;;2.00;74.74
35758;BME280;21879;50.110;18.900;2023-01-31T02:09:08;98058.46;;;1.97;74.17
35758;BME280;21879;50.110;18.900;2023-01-31T02:19:50;98068.95;;;1.87;74.00
35758;BME280;21879;50.110;18.900;2023-01-31T02:30:52;98073.55;;;1.86;74.25
35758;BME280;21879;50.110;18.900;2023-01-31T02:41:31;98086.56;;;1.96;74.38
35758;BME280;21879;50.110;18.900;2023-01-31T02:52:05;98096.46;;;2.04;74.46
35758;BME280;21879;50.110;18.900;2023-01-31T03:02:43;98109.33;;;2.17;74.34
35758;BME280;21879;50.110;18.900;2023-01-31T03:13:24;98127.78;;;2.24;74.12
35758;BME280;21879;50.110;18.900;2023-01-31T03:23:57;98137.59;;;2.14;73.59
35758;BME280;21879;50.110;18.900;2023-01-31T03:34:26;98158.46;;;2.10;73.35
35758;BME280;21879;50.110;18.900;2023-01-31T03:44:57;98206.58;;;2.06;73.38
35758;BME280;21879;50.110;18.900;2023-01-31T03:55:32;98217.26;;;1.88;73.22
35758;BME280;21879;50.110;18.900;2023-01-31T04:06:02;98231.20;;;1.82;73.53
35758;BME280;21879;50.110;18.900;2023-01-31T04:16:30;98260.09;;;1.86;73.71
35758;BME280;21879;50.110;18.900;2023-01-31T04:26:58;98258.52;;;1.75;73.88
35758;BME280;21879;50.110;18.900;2023-01-31T04:37:25;98248.23;;;1.66;73.84
35758;BME280;21879;50.110;18.900;2023-01-31T04:47:53;98260.65;;;1.71;73.29
35758;BME280;21879;50.110;18.900;2023-01-31T04:58:22;98277.84;;;1.74;73.69
35758;BME280;21879;50.110;18.900;2023-01-31T05:08:49;98295.34;;;1.74;73.23
35758;BME280;21879;50.110;18.900;2023-01-31T05:19:19;98314.34;;;1.73;73.25
35758;BME280;21879;50.110;18.900;2023-01-31T05:29:47;98336.50;;;1.66;73.25
35758;BME280;21879;50.110;18.900;2023-01-31T05:40:16;98355.91;;;1.52;73.26
35758;BME280;21879;50.110;18.900;2023-01-31T05:50:45;98361.97;;;1.39;73.99
35758;BME280;21879;50.110;18.900;2023-01-31T06:01:15;98375.30;;;1.45;74.08
35758;BME280;21879;50.110;18.900;2023-01-31T06:11:43;98402.08;;;1.55;74.16
35758;BME280;21879;50.110;18.900;2023-01-31T06:22:12;98418.27;;;1.75;74.33
35758;BME280;21879;50.110;18.900;2023-01-31T06:32:40;98435.23;;;1.83;73.78
35758;BME280;21879;50.110;18.900;2023-01-31T06:43:08;98449.91;;;1.80;73.93
35758;BME280;21879;50.110;18.900;2023-01-31T06:53:36;98469.59;;;1.71;73.21
35758;BME280;21879;50.110;18.900;2023-01-31T07:04:04;98493.59;;;1.63;72.91
35758;BME280;21879;50.110;18.900;2023-01-31T07:14:32;98497.40;;;1.73;73.09
35758;BME280;21879;50.110;18.900;2023-01-31T07:25:01;98501.59;;;1.77;72.52
35758;BME280;21879;50.110;18.900;2023-01-31T07:35:28;98505.56;;;1.78;72.33
35758;BME280;21879;50.110;18.900;2023-01-31T07:45:57;98525.33;;;1.95;72.24
35758;BME280;21879;50.110;18.900;2023-01-31T07:56:23;98536.08;;;2.02;71.51
35758;BME280;21879;50.110;18.900;2023-01-31T08:06:53;98541.05;;;2.08;71.12
35758;BME280;21879;50.110;18.900;2023-01-31T08:17:22;98546.15;;;2.14;70.72
35758;BME280;21879;50.110;18.900;2023-01-31T08:27:50;98566.69;;;2.13;70.50
35758;BME280;21879;50.110;18.900;2023-01-31T08:38:19;98587.88;;;2.09;70.81
35758;BME280;21879;50.110;18.900;2023-01-31T08:48:46;98599.68;;;2.08;71.00
35758;BME280;21879;50.110;18.900;2023-01-31T08:59:14;98605.52;;;2.08;71.45
35758;BME280;21879;50.110;18.900;2023-01-31T09:09:42;98616.42;;;2.13;70.94
35758;BME280;21879;50.110;18.900;2023-01-31T09:20:11;98627.23;;;2.20;70.80
35758;BME280;21879;50.110;18.900;2023-01-31T09:30:39;98632.80;;;2.39;70.54
35758;BME280;21879;50.110;18.900;2023-01-31T09:41:17;98637.86;;;2.43;69.21
35758;BME280;21879;50.110;18.900;2023-01-31T09:51:48;98647.40;;;2.41;68.11
35758;BME280;21879;50.110;18.900;2023-01-31T10:02:35;98634.20;;;2.33;67.79
35758;BME280;21879;50.110;18.900;2023-01-31T10:13:13;98640.91;;;2.34;67.17
35758;BME280;21879;50.110;18.900;2023-01-31T10:23:47;98641.02;;;2.39;67.11
35758;BME280;21879;50.110;18.900;2023-01-31T10:34:20;98643.20;;;2.52;67.40
35758;BME280;21879;50.110;18.900;2023-01-31T10:44:54;98644.43;;;2.62;67.93
35758;BME280;21879;50.110;18.900;2023-01-31T10:55:44;98636.85;;;2.69;68.43
35758;BME280;21879;50.110;18.900;2023-01-31T11:06:14;98627.08;;;2.77;68.24
35758;BME280;21879;50.110;18.900;2023-01-31T11:16:42;98620.05;;;2.96;68.65
35758;BME280;21879;50.110;18.900;2023-01-31T11:27:14;98621.27;;;3.06;67.97
35758;BME280;21879;50.110;18.900;2023-01-31T11:37:52;98603.13;;;3.00;67.38
35758;BME280;21879;50.110;18.900;2023-01-31T11:48:23;98593.23;;;3.03;66.95
35758;BME280;21879;50.110;18.900;2023-01-31T11:58:53;98582.30;;;3.07;66.65
35758;BME280;21879;50.110;18.900;2023-01-31T12:09:25;98577.24;;;3.03;66.82
35758;BME280;21879;50.110;18.900;2023-01-31T12:20:09;98567.85;;;2.97;66.59
35758;BME280;21879;50.110;18.900;2023-01-31T12:31:09;98559.14;;;3.09;66.77
35758;BME280;21879;50.110;18.900;2023-01-31T12:41:44;98546.73;;;3.27;66.76
35758;BME280;21879;50.110;18.900;2023-01-31T12:52:19;98542.31;;;3.39;66.48
35758;BME280;21879;50.110;18.900;2023-01-31T13:03:00;98549.63;;;3.35;66.74
35758;BME280;21879;50.110;18.900;2023-01-31T13:13:37;98548.44;;;3.15;67.40
35758;BME280;21879;50.110;18.900;2023-01-31T13:24:11;98528.40;;;3.19;67.95
35758;BME280;21879;50.110;18.900;2023-01-31T13:34:42;98519.38;;;3.34;68.37
35758;BME280;21879;50.110;18.900;2023-01-31T13:45:22;98516.17;;;2.98;68.16
35758;BME280;21879;50.110;18.900;2023-01-31T13:55:51;98520.42;;;2.76;68.81
35758;BME280;21879;50.110;18.900;2023-01-31T14:06:19;98529.98;;;2.81;68.96
35758;BME280;21879;50.110;18.900;2023-01-31T14:16:48;98527.99;;;2.87;69.35
35758;BME280;21879;50.110;18.900;2023-01-31T14:27:20;98516.06;;;3.00;69.88
35758;BME280;21879;50.110;18.900;2023-01-31T14:37:51;98494.77;;;3.21;69.85
35758;BME280;21879;50.110;18.900;2023-01-31T14:48:35;98488.13;;;3.25;69.36
35758;BME280;21879;50.110;18.900;2023-01-31T14:59:24;98486.64;;;3.18;69.52
35758;BME280;21879;50.110;18.900;2023-01-31T15:09:53;98486.86;;;3.22;69.60
35758;BME280;21879;50.110;18.900;2023-01-31T15:20:36;98478.32;;;3.14;69.63
35758;BME280;21879;50.110;18.900;2023-01-31T15:31:29;98474.20;;;3.04;69.85
35758;BME280;21879;50.110;18.900;2023-01-31T15:42:00;98465.05;;;2.80;69.82
35758;BME280;21879;50.110;18.900;2023-01-31T15:52:45;98444.73;;;2.48;70.41
35758;BME280;21879;50.110;18.900;2023-01-31T16:03:19;98434.24;;;2.20;71.11
35758;BME280;21879;50.110;18.900;2023-01-31T16:13:49;98431.74;;;2.06;71.85
35758;BME280;21879;50.110;18.900;2023-01-31T16:24:18;98433.70;;;2.09;72.25
35758;BME280;21879;50.110;18.900;2023-01-31T16:34:53;98433.56;;;2.11;72.14
35758;BME280;21879;50.110;18.900;2023-01-31T16:45:32;98445.52;;;2.18;72.45
35758;BME280;21879;50.110;18.900;2023-01-31T16:56:21;98443.73;;;2.23;72.46
35758;BME280;21879;50.110;18.900;2023-01-31T17:07:02;98437.14;;;2.28;72.71
35758;BME280;21879;50.110;18.900;2023-01-31T17:17:32;98432.58;;;2.31;72.74
35758;BME280;21879;50.110;18.900;2023-01-31T17:28:03;98413.67;;;2.30;72.83
35758;BME280;21879;50.110;18.900;2023-01-31T17:38:31;98417.83;;;2.31;73.08
35758;BME280;21879;50.110;18.900;2023-01-31T17:48:59;98409.80;;;2.34;72.98
35758;BME280;21879;50.110;18.900;2023-01-31T17:59:27;98385.54;;;2.20;73.27
35758;BME280;21879;50.110;18.900;2023-01-31T18:09:55;98365.19;;;2.05;73.47
35758;BME280;21879;50.110;18.900;2023-01-31T18:20:24;98357.78;;;1.95;73.84
35758;BME280;21879;50.110;18.900;2023-01-31T18:30:52;98345.58;;;1.92;74.07
35758;BME280;21879;50.110;18.900;2023-01-31T18:41:21;98335.23;;;1.90;74.41
35758;BME280;21879;50.110;18.900;2023-01-31T18:51:47;98317.05;;;1.89;74.81
35758;BME280;21879;50.110;18.900;2023-01-31T19:02:16;98300.34;;;1.85;74.71
35758;BME280;21879;50.110;18.900;2023-01-31T19:12:43;98294.69;;;1.84;74.77
35758;BME280;21879;50.110;18.900;2023-01-31T19:23:12;98281.70;;;1.78;74.84
35758;BME280;21879;50.110;18.900;2023-01-31T19:33:40;98264.00;;;1.67;75.36
35758;BME280;21879;50.110;18.900;2023-01-31T19:44:09;98251.09;;;1.63;75.56
35758;BME280;21879;50.110;18.900;2023-01-31T19:54:36;98228.35;;;1.57;76.03
35758;BME280;21879;50.110;18.900;2023-01-31T20:05:07;98216.45;;;1.53;76.34
35758;BME280;21879;50.110;18.900;2023-01-31T20:15:35;98215.24;;;1.62;76.30
35758;BME280;21879;50.110;18.900;2023-01-31T20:26:02;98209.80;;;1.73;76.19
35758;BME280;21879;50.110;18.900;2023-01-31T20:36:30;98209.00;;;1.77;75.99
35758;BME280;21879;50.110;18.900;2023-01-31T20:46:58;98206.09;;;1.77;76.36
35758;BME280;21879;50.110;18.900;2023-01-31T20:57:27;98184.77;;;1.73;76.70
35758;BME280;21879;50.110;18.900;2023-01-31T21:07:55;98183.86;;;1.70;76.98
35758;BME280;21879;50.110;18.900;2023-01-31T21:18:26;98179.49;;;1.75;76.97
35758;BME280;21879;50.110;18.900;2023-01-31T21:28:55;98163.94;;;1.78;76.84
35758;BME280;21879;50.110;18.900;2023-01-31T21:39:27;98163.27;;;1.79;77.12
35758;BME280;21879;50.110;18.900;2023-01-31T21:49:55;98156.56;;;1.77;76.80
35758;BME280;21879;50.110;18.900;2023-01-31T22:00:23;98158.12;;;1.78;76.92
35758;BME280;21879;50.110;18.900;2023-01-31T22:10:58;98144.95;;;1.80;76.92
35758;BME280;21879;50.110;18.900;2023-01-31T22:21:27;98144.83;;;1.83;77.12
35758;BME280;21879;50.110;18.900;2023-01-31T22:31:56;98136.83;;;1.86;77.03
35758;BME280;21879;50.110;18.900;2023-01-31T22:42:23;98148.05;;;1.92;77.15
35758;BME280;21879;50.110;18.900;2023-01-31T22:52:51;98155.91;;;2.01;76.94
35758;BME280;21879;50.110;18.900;2023-01-31T23:03:20;98115.95;;;2.01;76.93
35758;BME280;21879;50.110;18.900;2023-01-31T23:13:48;98112.39;;;2.03;77.13
35758;BME280;21879;50.110;18.900;2023-01-31T23:24:16;98119.29;;;2.06;77.24
35758;BME280;21879;50.110;18.900;2023-01-31T23:34:46;98142.05;;;2.15;77.24
35758;BME280;21879;50.110;18.900;2023-01-31T23:45:14;98135.24;;;2.18;77.09
35758;BME280;21879;50.110;18.900;2023-01-31T23:55:41;98123.40;;;2.17;77.15
